createdAt,value
2023-05-30T00:00:09.124Z,99752.03
2023-05-30T00:00:21.686Z,99753.81
2023-05-30T00:00:34.538Z,99747.91
2023-05-30T00:00:49.445Z,99752.50
2023-05-30T00:01:02.097Z,99751.56
2023-05-30T00:01:14.436Z,99752.50
2023-05-30T00:01:26.787Z,99752.50
2023-05-30T00:01:39.227Z,99749.75
2023-05-30T00:01:52.407Z,99745.34
2023-05-30T00:02:04.778Z,99749.75
2023-05-30T00:02:17.051Z,99752.34
2023-05-30T00:02:29.258Z,99750.81
2023-05-30T00:02:45.180Z,99755.34
2023-05-30T00:02:57.954Z,99753.09
2023-05-30T00:03:10.484Z,99751.22
2023-05-30T00:03:25.008Z,99751.22
2023-05-30T00:03:37.872Z,99749.31
2023-05-30T00:03:53.980Z,99752.06
2023-05-30T00:04:06.335Z,99745.94
2023-05-30T00:04:18.835Z,99751.97
2023-05-30T00:04:31.532Z,99752.88
2023-05-30T00:04:43.655Z,99755.44
2023-05-30T00:04:56.238Z,99752.78
2023-05-30T00:05:08.533Z,99753.63
2023-05-30T00:05:20.749Z,99749.13
2023-05-30T00:05:32.670Z,99752.50
2023-05-30T00:05:44.904Z,99755.88
2023-05-30T00:05:56.911Z,99755.03
2023-05-30T00:06:08.884Z,99754.28
2023-05-30T00:06:20.927Z,99752.50
2023-05-30T00:06:32.910Z,99754.19
2023-05-30T00:06:44.967Z,99757.59
2023-05-30T00:06:57.396Z,99757.59
2023-05-30T00:07:09.463Z,99757.59
2023-05-30T00:07:21.713Z,99756.56
2023-05-30T00:07:33.763Z,99759.09
2023-05-30T00:07:45.784Z,99753.91
2023-05-30T00:07:57.708Z,99758.44
2023-05-30T00:08:09.668Z,99753.09
2023-05-30T00:08:22.332Z,99759.94
2023-05-30T00:08:34.412Z,99759.94
2023-05-30T00:08:46.676Z,99758.97
2023-05-30T00:08:58.911Z,99758.13
2023-05-30T00:09:11.185Z,99762.66
2023-05-30T00:09:23.124Z,99758.59
2023-05-30T00:09:35.148Z,99763.03
2023-05-30T00:09:47.683Z,99758.72
2023-05-30T00:09:59.706Z,99766.41
2023-05-30T00:10:11.626Z,99764.53
2023-05-30T00:10:23.548Z,99758.50
2023-05-30T00:10:35.596Z,99759.66
2023-05-30T00:10:47.947Z,99757.00
2023-05-30T00:10:59.941Z,99764.91
2023-05-30T00:11:15.975Z,99763.25
2023-05-30T00:11:29.367Z,99763.13
2023-05-30T00:11:41.320Z,99764.91
2023-05-30T00:11:55.790Z,99756.28
2023-05-30T00:12:08.089Z,99757.09
2023-05-30T00:12:20.026Z,99763.25
2023-05-30T00:12:32.139Z,99764.16
2023-05-30T00:12:47.700Z,99770.19
2023-05-30T00:13:00.994Z,99761.75
2023-05-30T00:13:14.464Z,99760.03
2023-05-30T00:13:29.162Z,99767.00
2023-05-30T00:13:45.786Z,99764.25
2023-05-30T00:13:58.266Z,99763.41
2023-05-30T00:14:11.156Z,99773.13
2023-05-30T00:14:24.221Z,99771.16
2023-05-30T00:14:37.997Z,99776.22
2023-05-30T00:14:50.379Z,99767.59
2023-05-30T00:15:04.125Z,99767.38
2023-05-30T00:15:29.577Z,99770.56
2023-05-30T00:15:41.880Z,99770.88
2023-05-30T00:15:55.317Z,99766.28
2023-05-30T00:16:08.457Z,99767.19
2023-05-30T00:16:20.768Z,99765.06
2023-05-30T00:16:32.905Z,99771.16
2023-05-30T00:16:46.136Z,99771.44
2023-05-30T00:16:59.384Z,99770.63
2023-05-30T00:17:11.443Z,99772.94
2023-05-30T00:17:23.464Z,99772.84
2023-05-30T00:17:38.961Z,99772.66
2023-05-30T00:17:53.517Z,99767.19
2023-05-30T00:18:06.715Z,99764.75
2023-05-30T00:18:19.086Z,99767.38
2023-05-30T00:18:36.018Z,99772.47
2023-05-30T00:18:48.105Z,99770.47
2023-05-30T00:19:01.460Z,99767.09
2023-05-30T00:19:14.709Z,99770.47
2023-05-30T00:19:26.857Z,99772.66
2023-05-30T00:19:38.877Z,99771.16
2023-05-30T00:19:53.614Z,99773.25
2023-05-30T00:20:10.033Z,99774.75
2023-05-30T00:20:25.491Z,99773.59
2023-05-30T00:20:37.654Z,99777.72
2023-05-30T00:20:50.395Z,99772.66
2023-05-30T00:21:04.989Z,99773.41
2023-05-30T00:21:18.976Z,99774.78
2023-05-30T00:21:32.618Z,99774.50
2023-05-30T00:21:46.188Z,99775.19
2023-05-30T00:21:58.576Z,99778.31
2023-05-30T00:22:13.400Z,99775.66
2023-05-30T00:22:26.565Z,99779.06
2023-05-30T00:22:42.115Z,99778.88
2023-05-30T00:22:54.317Z,99775.59
2023-05-30T00:23:06.464Z,99777.16
2023-05-30T00:23:19.166Z,99784.13
2023-05-30T00:23:33.017Z,99775.13
2023-05-30T00:23:46.274Z,99778.50
2023-05-30T00:23:58.594Z,99774.94
2023-05-30T00:24:10.722Z,99780.19
2023-05-30T00:24:24.059Z,99781.91
2023-05-30T00:24:35.986Z,99779.91
2023-05-30T00:24:49.107Z,99775.31
2023-05-30T00:25:01.242Z,99776.06
2023-05-30T00:25:13.268Z,99784.09
2023-05-30T00:25:25.683Z,99782.28
2023-05-30T00:25:38.202Z,99777.78
2023-05-30T00:25:50.656Z,99776.28
2023-05-30T00:26:02.750Z,99773.00
2023-05-30T00:26:14.745Z,99777.81
2023-05-30T00:26:27.461Z,99784.75
2023-05-30T00:26:39.455Z,99780.78
2023-05-30T00:26:51.434Z,99780.59
2023-05-30T00:27:03.551Z,99779.44
2023-05-30T00:27:16.091Z,99775.31
2023-05-30T00:27:28.295Z,99783.13
2023-05-30T00:27:40.322Z,99784.16
2023-05-30T00:27:52.270Z,99776.38
2023-05-30T00:28:08.173Z,99777.97
2023-05-30T00:28:20.172Z,99775.38
2023-05-30T00:28:32.449Z,99781.59
2023-05-30T00:28:44.464Z,99780.25
2023-05-30T00:28:56.798Z,99779.88
2023-05-30T00:29:08.958Z,99775.19
2023-05-30T00:29:21.307Z,99777.81
2023-05-30T00:29:33.243Z,99782.59
2023-05-30T00:29:48.184Z,99784.94
2023-05-30T00:30:00.245Z,99770.69
2023-05-30T00:30:13.155Z,99785.16
2023-05-30T00:30:26.807Z,99776.22
2023-05-30T00:30:38.764Z,99776.88
2023-05-30T00:30:50.757Z,99776.47
2023-05-30T00:31:02.712Z,99777.97
2023-05-30T00:31:14.676Z,99779.47
2023-05-30T00:31:27.203Z,99776.56
2023-05-30T00:31:39.222Z,99784.16
2023-05-30T00:31:51.333Z,99782.59
2023-05-30T00:32:03.616Z,99779.75
2023-05-30T00:32:15.672Z,99785.00
2023-05-30T00:32:27.736Z,99786.59
2023-05-30T00:32:39.746Z,99785.66
2023-05-30T00:32:51.796Z,99782.06
2023-05-30T00:33:04.119Z,99783.97
2023-05-30T00:33:16.429Z,99783.78
2023-05-30T00:33:28.426Z,99784.53
2023-05-30T00:33:40.779Z,99785.47
2023-05-30T00:33:53.003Z,99792.59
2023-05-30T00:34:05.196Z,99782.69
2023-05-30T00:34:17.156Z,99786.22
2023-05-30T00:34:29.317Z,99788.31
2023-05-30T00:34:41.456Z,99786.84
2023-05-30T00:34:53.478Z,99785.59
2023-05-30T00:35:06.282Z,99789.00
2023-05-30T00:35:18.537Z,99788.41
2023-05-30T00:35:30.516Z,99783.25
2023-05-30T00:35:42.764Z,99784.75
2023-05-30T00:35:54.730Z,99781.34
2023-05-30T00:36:06.990Z,99781.75
2023-05-30T00:36:18.923Z,99786.72
2023-05-30T00:36:32.184Z,99787.22
2023-05-30T00:36:44.232Z,99792.09
2023-05-30T00:36:56.257Z,99790.88
2023-05-30T00:37:09.969Z,99792.53
2023-05-30T00:37:22.024Z,99784.34
2023-05-30T00:37:34.029Z,99787.94
2023-05-30T00:37:46.023Z,99788.31
2023-05-30T00:37:58.091Z,99787.09
2023-05-30T00:38:10.253Z,99781.84
2023-05-30T00:38:22.200Z,99792.88
2023-05-30T00:38:34.365Z,99787.38
2023-05-30T00:38:46.359Z,99787.84
2023-05-30T00:38:58.388Z,99785.34
2023-05-30T00:39:10.425Z,99792.09
2023-05-30T00:39:22.362Z,99790.47
2023-05-30T00:39:34.331Z,99790.22
2023-05-30T00:39:46.441Z,99786.16
2023-05-30T00:39:58.411Z,99790.97
2023-05-30T00:40:10.686Z,99786.63
2023-05-30T00:40:22.645Z,99790.13
2023-05-30T00:40:34.606Z,99797.81
2023-05-30T00:40:47.003Z,99794.81
2023-05-30T00:40:59.227Z,99788.50
2023-05-30T00:41:11.634Z,99791.72
2023-05-30T00:41:23.648Z,99790.56
2023-05-30T00:41:35.786Z,99788.59
2023-05-30T00:41:47.999Z,99793.75
2023-05-30T00:42:00.136Z,99798.63
2023-05-30T00:42:12.122Z,99792.34
2023-05-30T00:42:24.180Z,99790.19
2023-05-30T00:42:36.148Z,99794.50
2023-05-30T00:42:48.113Z,99795.16
2023-05-30T00:43:00.291Z,99796.63
2023-05-30T00:43:12.405Z,99793.16
2023-05-30T00:43:24.436Z,99792.59
2023-05-30T00:43:38.501Z,99791.09
2023-05-30T00:43:50.660Z,99797.16
2023-05-30T00:44:02.874Z,99793.38
2023-05-30T00:44:15.074Z,99790.47
2023-05-30T00:44:27.032Z,99793.78
2023-05-30T00:44:38.980Z,99790.22
2023-05-30T00:44:50.937Z,99791.50
2023-05-30T00:45:02.889Z,99798.38
2023-05-30T00:45:14.823Z,99791.97
2023-05-30T00:45:27.027Z,99796.66
2023-05-30T00:45:39.730Z,99791.88
2023-05-30T00:45:57.028Z,99793.38
2023-05-30T00:46:11.417Z,99796.59
2023-05-30T00:46:31.289Z,99786.81
2023-05-30T00:46:43.733Z,99792.16
2023-05-30T00:46:55.967Z,99787.94
2023-05-30T00:47:08.360Z,99791.22
2023-05-30T00:47:20.885Z,99787.56
2023-05-30T00:47:32.957Z,99789.22
2023-05-30T00:47:45.002Z,99791.78
2023-05-30T00:47:59.780Z,99789.97
2023-05-30T00:48:12.981Z,99792.59
2023-05-30T00:48:25.954Z,99794.09
2023-05-30T00:48:38.629Z,99792.72
2023-05-30T00:48:50.691Z,99790.22
2023-05-30T00:49:03.639Z,99788.50
2023-05-30T00:49:16.325Z,99789.72
2023-05-30T00:49:28.593Z,99791.13
2023-05-30T00:49:41.500Z,99795.38
2023-05-30T00:49:54.606Z,99791.91
2023-05-30T00:50:08.739Z,99801.28
2023-05-30T00:50:21.775Z,99787.00
2023-05-30T00:50:38.167Z,99791.88
2023-05-30T00:50:51.901Z,99787.94
2023-05-30T00:51:07.936Z,99791.31
2023-05-30T00:51:20.400Z,99787.59
2023-05-30T00:51:33.748Z,99797.25
2023-05-30T00:51:45.956Z,99794.38
2023-05-30T00:51:58.069Z,99795.66
2023-05-30T00:52:10.595Z,99790.00
2023-05-30T00:52:22.716Z,99791.72
2023-05-30T00:52:35.821Z,99795.09
2023-05-30T00:52:51.356Z,99786.06
2023-05-30T00:53:04.289Z,99787.72
2023-05-30T00:53:20.060Z,99787.56
2023-05-30T00:53:32.535Z,99789.03
2023-05-30T00:53:44.925Z,99794.50
2023-05-30T00:53:57.354Z,99787.56
2023-05-30T00:54:09.481Z,99791.88
2023-05-30T00:54:25.588Z,99788.50
2023-05-30T00:54:41.521Z,99789.47
2023-05-30T00:54:54.133Z,99789.25
2023-05-30T00:55:06.889Z,99790.00
2023-05-30T00:55:19.718Z,99787.19
2023-05-30T00:55:32.371Z,99787.94
2023-05-30T00:55:44.660Z,99792.06
2023-05-30T00:55:56.994Z,99785.84
2023-05-30T00:56:09.348Z,99787.56
2023-05-30T00:56:24.093Z,99785.66
2023-05-30T00:56:37.191Z,99792.59
2023-05-30T00:56:49.555Z,99789.88
2023-05-30T00:57:02.668Z,99788.13
2023-05-30T00:57:16.160Z,99782.97
2023-05-30T00:57:29.344Z,99786.66
2023-05-30T00:57:41.909Z,99787.97
2023-05-30T00:57:54.802Z,99794.09
2023-05-30T00:58:07.216Z,99787.59
2023-05-30T00:58:20.164Z,99783.38
2023-05-30T00:58:32.208Z,99791.53
2023-05-30T00:58:44.505Z,99788.72
2023-05-30T00:58:56.740Z,99785.72
2023-05-30T00:59:08.731Z,99787.00
2023-05-30T00:59:21.521Z,99783.44
2023-05-30T00:59:33.766Z,99791.88
2023-05-30T00:59:46.533Z,99784.75
2023-05-30T00:59:58.558Z,99789.81
2023-05-30T01:00:11.964Z,99787.09
2023-05-30T01:00:26.317Z,99780.97
2023-05-30T01:00:39.841Z,99790.56
2023-05-30T01:00:52.189Z,99782.84
2023-05-30T01:01:04.257Z,99780.78
2023-05-30T01:01:16.256Z,99777.94
2023-05-30T01:01:28.713Z,99781.63
2023-05-30T01:01:43.888Z,99781.53
2023-05-30T01:01:56.887Z,99783.97
2023-05-30T01:02:08.885Z,99784.72
2023-05-30T01:02:20.906Z,99781.31
2023-05-30T01:02:37.003Z,99780.94
2023-05-30T01:02:50.202Z,99780.75
2023-05-30T01:03:02.542Z,99786.63
2023-05-30T01:03:16.925Z,99782.75
2023-05-30T01:03:34.035Z,99781.72
2023-05-30T01:03:48.513Z,99782.28
2023-05-30T01:04:02.526Z,99778.69
2023-05-30T01:04:15.135Z,99778.69
2023-05-30T01:04:27.383Z,99783.25
2023-05-30T01:04:39.399Z,99782.72
2023-05-30T01:04:51.402Z,99782.06
2023-05-30T01:05:03.561Z,99784.69
2023-05-30T01:05:16.092Z,99781.78
2023-05-30T01:05:28.460Z,99781.41
2023-05-30T01:05:40.730Z,99783.56
2023-05-30T01:05:52.837Z,99779.88
2023-05-30T01:06:07.617Z,99776.88
2023-05-30T01:06:20.951Z,99781.22
2023-05-30T01:06:33.564Z,99775.81
2023-05-30T01:06:47.790Z,99787.97
2023-05-30T01:07:00.532Z,99778.84
2023-05-30T01:07:13.822Z,99779.97
2023-05-30T01:07:25.884Z,99777.81
2023-05-30T01:07:37.857Z,99769.72
2023-05-30T01:07:49.868Z,99785.88
2023-05-30T01:08:02.477Z,99777.81
2023-05-30T01:08:14.499Z,99782.31
2023-05-30T01:08:26.500Z,99780.06
2023-05-30T01:08:38.546Z,99778.72
2023-05-30T01:08:52.830Z,99779.69
2023-05-30T01:09:05.761Z,99781.19
2023-05-30T01:09:19.362Z,99780.97
2023-05-30T01:09:31.620Z,99786.06
2023-05-30T01:09:43.757Z,99778.91
2023-05-30T01:09:55.993Z,99781.72
2023-05-30T01:10:08.836Z,99774.03
2023-05-30T01:10:21.793Z,99780.63
2023-05-30T01:10:33.787Z,99774.44
2023-05-30T01:10:48.581Z,99778.38
2023-05-30T01:11:18.588Z,99784.19
2023-05-30T01:11:41.873Z,99784.75
2023-05-30T01:12:08.729Z,99780.84
2023-05-30T01:12:43.302Z,99778.22
2023-05-30T01:13:12.520Z,99778.19
2023-05-30T01:13:57.521Z,99777.59
2023-05-30T01:14:43.612Z,99779.09
2023-05-30T01:14:55.550Z,99781.84
2023-05-30T01:15:23.705Z,99780.34
2023-05-30T01:15:43.467Z,99778.66
2023-05-30T01:16:04.424Z,99782.31
2023-05-30T01:16:23.444Z,99774.97
2023-05-30T01:16:44.179Z,99781.19
2023-05-30T01:17:03.262Z,99776.84
2023-05-30T01:17:34.578Z,99778.97
2023-05-30T01:17:53.256Z,99776.97
2023-05-30T01:18:23.728Z,99782.50
2023-05-30T01:19:10.988Z,99779.38
2023-05-30T01:19:35.286Z,99775.72
2023-05-30T01:20:09.096Z,99776.13
2023-05-30T01:20:25.982Z,99778.56
2023-05-30T01:20:41.609Z,99775.94
2023-05-30T01:21:00.610Z,99780.06
2023-05-30T01:21:16.477Z,99776.47
2023-05-30T01:21:31.908Z,99780.91
2023-05-30T01:21:45.399Z,99783.16
2023-05-30T01:22:17.433Z,99777.81
2023-05-30T01:22:50.368Z,99771.41
2023-05-30T01:23:09.952Z,99776.31
2023-05-30T01:23:36.952Z,99779.69
2023-05-30T01:24:25.684Z,99778.25
2023-05-30T01:24:45.388Z,99781.47
2023-05-30T01:25:17.615Z,99779.88
2023-05-30T01:26:00.997Z,99775.94
2023-05-30T01:26:34.609Z,99770.78
2023-05-30T01:27:25.391Z,99771.22
2023-05-30T01:28:03.534Z,99772.72
2023-05-30T01:28:22.331Z,99771.44
2023-05-30T01:28:37.973Z,99769.53
2023-05-30T01:28:52.286Z,99765.56
2023-05-30T01:29:08.280Z,99765.97
2023-05-30T01:29:22.620Z,99765.41
2023-05-30T01:29:36.385Z,99763.81
2023-05-30T01:29:50.269Z,99764.38
2023-05-30T01:30:04.583Z,99773.69
2023-05-30T01:30:17.551Z,99770.09
2023-05-30T01:30:32.000Z,99765.28
2023-05-30T01:30:49.351Z,99763.53
2023-05-30T01:31:02.342Z,99765.88
2023-05-30T01:31:15.563Z,99763.91
2023-05-30T01:31:27.753Z,99768.28
2023-05-30T01:31:40.125Z,99766.41
2023-05-30T01:31:53.973Z,99771.66
2023-05-30T01:32:06.957Z,99770.66
2023-05-30T01:32:19.932Z,99770.44
2023-05-30T01:32:32.417Z,99765.94
2023-05-30T01:32:44.759Z,99768.56
2023-05-30T01:32:56.934Z,99764.16
2023-05-30T01:33:09.701Z,99766.66
2023-05-30T01:33:22.848Z,99765.75
2023-05-30T01:33:36.932Z,99765.00
2023-05-30T01:33:52.375Z,99766.88
2023-05-30T01:34:04.903Z,99766.88
2023-05-30T01:34:17.036Z,99766.03
2023-05-30T01:34:29.363Z,99766.13
2023-05-30T01:34:41.500Z,99770.44
2023-05-30T01:34:54.825Z,99761.72
2023-05-30T01:35:07.073Z,99760.66
2023-05-30T01:35:25.281Z,99771.19
2023-05-30T01:35:37.289Z,99766.03
2023-05-30T01:35:49.602Z,99764.34
2023-05-30T01:36:01.567Z,99765.94
2023-05-30T01:36:13.686Z,99765.94
2023-05-30T01:36:27.404Z,99765.84
2023-05-30T01:36:39.381Z,99766.66
2023-05-30T01:36:51.345Z,99766.66
2023-05-30T01:37:03.418Z,99764.78
2023-05-30T01:37:15.459Z,99761.63
2023-05-30T01:37:27.463Z,99765.38
2023-05-30T01:37:39.435Z,99766.22
2023-05-30T01:37:51.570Z,99769.59
2023-05-30T01:38:03.578Z,99758.25
2023-05-30T01:38:16.547Z,99765.09
2023-05-30T01:38:28.655Z,99770.66
2023-05-30T01:38:40.687Z,99770.44
2023-05-30T01:38:52.932Z,99765.94
2023-05-30T01:39:04.912Z,99755.53
2023-05-30T01:39:17.123Z,99759.06
2023-05-30T01:39:29.146Z,99760.31
2023-05-30T01:39:41.211Z,99764.72
2023-05-30T01:39:53.280Z,99764.72
2023-05-30T01:40:05.872Z,99765.97
2023-05-30T01:40:22.070Z,99764.91
2023-05-30T01:40:34.605Z,99761.66
2023-05-30T01:40:49.933Z,99765.78
2023-05-30T01:41:02.703Z,99765.56
2023-05-30T01:41:33.473Z,99766.13
2023-05-30T01:42:13.020Z,99760.03
2023-05-30T01:42:31.017Z,99765.78
2023-05-30T01:42:45.936Z,99763.91
2023-05-30T01:43:25.240Z,99765.56
2023-05-30T01:43:37.263Z,99762.75
2023-05-30T01:44:02.231Z,99765.78
2023-05-30T01:44:25.718Z,99759.56
2023-05-30T01:44:47.719Z,99762.00
2023-05-30T01:45:16.414Z,99759.28
2023-05-30T01:45:53.611Z,99757.41
2023-05-30T01:46:29.824Z,99763.78
2023-05-30T01:46:49.129Z,99753.16
2023-05-30T01:47:10.928Z,99762.75
2023-05-30T01:47:28.736Z,99758.16
2023-05-30T01:47:52.997Z,99757.41
2023-05-30T01:48:16.255Z,99756.28
2023-05-30T01:48:28.104Z,99761.81
2023-05-30T01:48:58.558Z,99761.66
2023-05-30T01:49:19.564Z,99752.06
2023-05-30T01:49:44.135Z,99752.06
2023-05-30T01:50:00.161Z,99759.03
2023-05-30T01:50:17.031Z,99762.78
2023-05-30T01:50:43.761Z,99755.81
2023-05-30T01:50:59.506Z,99757.22
2023-05-30T01:51:15.020Z,99756.09
2023-05-30T01:51:50.663Z,99753.53
2023-05-30T01:52:09.413Z,99763.25
2023-05-30T01:52:25.495Z,99755.44
2023-05-30T01:52:41.869Z,99754.59
2023-05-30T01:53:00.906Z,99755.44
2023-05-30T01:53:22.132Z,99753.75
2023-05-30T01:53:42.830Z,99754.38
2023-05-30T01:54:00.812Z,99756.47
2023-05-30T01:54:19.008Z,99755.63
2023-05-30T01:54:34.582Z,99758.94
2023-05-30T01:54:52.756Z,99761.19
2023-05-30T01:55:07.788Z,99755.00
2023-05-30T01:55:20.624Z,99765.34
2023-05-30T01:55:36.429Z,99756.22
2023-05-30T01:55:51.486Z,99765.63
2023-05-30T01:56:06.629Z,99759.69
2023-05-30T01:56:19.487Z,99760.34
2023-05-30T01:56:33.775Z,99764.47
2023-05-30T01:56:49.327Z,99766.94
2023-05-30T01:57:09.604Z,99758.09
2023-05-30T01:57:25.655Z,99763.16
2023-05-30T01:57:45.961Z,99770.09
2023-05-30T01:58:00.489Z,99760.72
2023-05-30T01:58:16.067Z,99767.19
2023-05-30T01:58:29.269Z,99766.91
2023-05-30T01:58:42.149Z,99765.91
2023-05-30T01:58:54.886Z,99766.53
2023-05-30T01:59:09.332Z,99763.72
2023-05-30T01:59:22.071Z,99775.75
2023-05-30T01:59:35.233Z,99764.38
2023-05-30T01:59:49.740Z,99768.16
2023-05-30T02:00:02.750Z,99769.91
2023-05-30T02:00:16.183Z,99764.47
2023-05-30T02:00:31.270Z,99772.66
2023-05-30T02:00:44.026Z,99771.72
2023-05-30T02:00:57.597Z,99769.38
2023-05-30T02:01:10.129Z,99768.63
2023-05-30T02:01:25.892Z,99763.53
2023-05-30T02:01:39.841Z,99771.25
2023-05-30T02:01:54.470Z,99774.44
2023-05-30T02:02:08.241Z,99769.91
2023-05-30T02:02:20.284Z,99770.78
2023-05-30T02:02:32.845Z,99772.47
2023-05-30T02:02:45.717Z,99772.00
2023-05-30T02:02:57.825Z,99769.38
2023-05-30T02:03:11.385Z,99773.50
2023-05-30T02:03:27.217Z,99770.88
2023-05-30T02:03:39.266Z,99769.06
2023-05-30T02:03:53.177Z,99769.91
2023-05-30T02:04:05.444Z,99770.88
2023-05-30T02:04:17.468Z,99767.28
2023-05-30T02:04:29.437Z,99769.81
2023-05-30T02:04:41.407Z,99777.63
2023-05-30T02:04:53.330Z,99778.47
2023-05-30T02:05:05.576Z,99764.47
2023-05-30T02:05:17.608Z,99771.44
2023-05-30T02:05:29.775Z,99774.81
2023-05-30T02:05:41.841Z,99772.19
2023-05-30T02:05:53.973Z,99767.13
2023-05-30T02:06:06.934Z,99775.75
2023-05-30T02:06:19.018Z,99772.38
2023-05-30T02:06:30.998Z,99774.06
2023-05-30T02:06:43.012Z,99772.38
2023-05-30T02:06:54.987Z,99774.06
2023-05-30T02:07:06.955Z,99775.75
2023-05-30T02:07:18.896Z,99769.56
2023-05-30T02:07:33.494Z,99773.22
2023-05-30T02:07:45.981Z,99774.91
2023-05-30T02:07:58.208Z,99770.50
2023-05-30T02:08:10.852Z,99773.13
2023-05-30T02:08:23.484Z,99772.19
2023-05-30T02:08:35.505Z,99773.13
2023-05-30T02:08:47.517Z,99769.91
2023-05-30T02:08:59.528Z,99772.53
2023-05-30T02:09:11.868Z,99769.91
2023-05-30T02:09:26.174Z,99774.34
2023-05-30T02:09:38.479Z,99772.19
2023-05-30T02:09:50.570Z,99774.81
2023-05-30T02:10:02.833Z,99760.91
2023-05-30T02:10:14.818Z,99771.44
2023-05-30T02:10:26.821Z,99764.28
2023-05-30T02:10:38.869Z,99766.00
2023-05-30T02:10:50.894Z,99770.69
2023-05-30T02:11:03.121Z,99771.44
2023-05-30T02:11:15.612Z,99776.22
2023-05-30T02:11:28.147Z,99768.25
2023-05-30T02:11:40.130Z,99769.94
2023-05-30T02:11:52.174Z,99769.16
2023-05-30T02:12:04.722Z,99774.06
2023-05-30T02:12:16.797Z,99764.38
2023-05-30T02:12:28.870Z,99772.25
2023-05-30T02:12:41.311Z,99765.38
2023-05-30T02:12:53.273Z,99775.75
2023-05-30T02:13:05.347Z,99770.66
2023-05-30T02:13:17.413Z,99762.84
2023-05-30T02:13:29.429Z,99766.72
2023-05-30T02:13:41.863Z,99762.38
2023-05-30T02:13:53.873Z,99769.50
2023-05-30T02:14:06.492Z,99771.22
2023-05-30T02:14:21.066Z,99764.81
2023-05-30T02:14:33.030Z,99766.50
2023-05-30T02:14:45.433Z,99765.47
2023-05-30T02:14:57.472Z,99763.72
2023-05-30T02:15:09.762Z,99768.00
2023-05-30T02:15:21.842Z,99766.13
2023-05-30T02:15:33.780Z,99769.72
2023-05-30T02:15:46.032Z,99770.34
2023-05-30T02:15:58.645Z,99770.56
2023-05-30T02:16:10.804Z,99765.38
2023-05-30T02:16:25.697Z,99763.78
2023-05-30T02:16:38.028Z,99762.75
2023-05-30T02:16:50.325Z,99768.69
2023-05-30T02:17:02.525Z,99769.34
2023-05-30T02:17:14.934Z,99768.31
2023-05-30T02:17:27.036Z,99771.78
2023-05-30T02:17:39.240Z,99766.50
2023-05-30T02:17:51.325Z,99768.09
2023-05-30T02:18:05.162Z,99769.75
2023-05-30T02:18:18.337Z,99770.50
2023-05-30T02:18:30.464Z,99765.25
2023-05-30T02:18:42.654Z,99771.25
2023-05-30T02:18:54.754Z,99772.19
2023-05-30T02:19:07.899Z,99765.34
2023-05-30T02:19:20.987Z,99768.97
2023-05-30T02:19:32.912Z,99776.28
2023-05-30T02:19:44.953Z,99774.59
2023-05-30T02:19:58.553Z,99768.47
2023-05-30T02:20:10.964Z,99764.53
2023-05-30T02:20:22.963Z,99766.50
2023-05-30T02:20:35.663Z,99762.19
2023-05-30T02:20:47.891Z,99767.72
2023-05-30T02:21:00.126Z,99770.41
2023-05-30T02:21:13.472Z,99768.16
2023-05-30T02:21:25.591Z,99770.78
2023-05-30T02:21:38.226Z,99762.81
2023-05-30T02:21:50.282Z,99765.44
2023-05-30T02:22:02.359Z,99770.78
2023-05-30T02:22:14.394Z,99765.53
2023-05-30T02:22:26.394Z,99762.16
2023-05-30T02:22:38.458Z,99767.78
2023-05-30T02:22:50.421Z,99772.72
2023-05-30T02:23:02.338Z,99771.72
2023-05-30T02:23:14.352Z,99772.47
2023-05-30T02:23:26.356Z,99773.91
2023-05-30T02:23:38.407Z,99776.41
2023-05-30T02:23:50.867Z,99771.75
2023-05-30T02:24:03.026Z,99776.91
2023-05-30T02:24:15.035Z,99768.91
2023-05-30T02:24:27.043Z,99775.97
2023-05-30T02:24:39.112Z,99770.78
2023-05-30T02:24:52.133Z,99766.41
2023-05-30T02:25:04.290Z,99768.91
2023-05-30T02:25:16.374Z,99766.41
2023-05-30T02:25:28.549Z,99771.16
2023-05-30T02:25:41.058Z,99771.28
2023-05-30T02:25:53.288Z,99771.34
2023-05-30T02:26:06.149Z,99773.38
2023-05-30T02:26:18.089Z,99768.81
2023-05-30T02:26:30.261Z,99766.19
2023-05-30T02:26:42.200Z,99773.22
2023-05-30T02:26:54.117Z,99773.22
2023-05-30T02:27:06.892Z,99774.91
2023-05-30T02:27:18.990Z,99774.91
2023-05-30T02:27:31.009Z,99774.06
2023-05-30T02:27:43.266Z,99767.97
2023-05-30T02:27:55.306Z,99771.63
2023-05-30T02:28:07.264Z,99766.25
2023-05-30T02:28:22.270Z,99771.53
2023-05-30T02:28:34.627Z,99767.97
2023-05-30T02:28:46.619Z,99768.88
2023-05-30T02:28:58.565Z,99769.66
2023-05-30T02:29:11.160Z,99769.66
2023-05-30T02:29:23.298Z,99767.03
2023-05-30T02:29:35.540Z,99767.88
2023-05-30T02:29:47.504Z,99773.03
2023-05-30T02:29:59.462Z,99767.78
2023-05-30T02:30:12.123Z,99770.19
2023-05-30T02:30:24.039Z,99771.88
2023-05-30T02:30:36.273Z,99768.34
2023-05-30T02:30:48.227Z,99768.50
2023-05-30T02:31:00.705Z,99772.72
2023-05-30T02:31:12.639Z,99775.25
2023-05-30T02:31:24.688Z,99770.00
2023-05-30T02:31:36.677Z,99770.00
2023-05-30T02:31:48.690Z,99767.28
2023-05-30T02:32:00.768Z,99771.72
2023-05-30T02:32:12.859Z,99775.19
2023-05-30T02:32:25.038Z,99769.09
2023-05-30T02:32:37.254Z,99768.34
2023-05-30T02:32:49.321Z,99771.78
2023-05-30T02:33:01.410Z,99767.47
2023-05-30T02:33:13.540Z,99771.88
2023-05-30T02:33:25.789Z,99771.88
2023-05-30T02:33:37.711Z,99764.94
2023-05-30T02:33:49.682Z,99769.53
2023-05-30T02:34:01.630Z,99773.94
2023-05-30T02:34:13.649Z,99774.88
2023-05-30T02:34:25.554Z,99768.69
2023-05-30T02:34:37.808Z,99775.63
2023-05-30T02:34:49.803Z,99774.78
2023-05-30T02:35:01.916Z,99766.81
2023-05-30T02:35:14.269Z,99777.34
2023-05-30T02:35:26.219Z,99773.84
2023-05-30T02:35:38.179Z,99775.63
2023-05-30T02:35:50.378Z,99776.66
2023-05-30T02:36:02.315Z,99771.56
2023-05-30T02:36:15.206Z,99773.34
2023-05-30T02:36:27.207Z,99772.78
2023-05-30T02:36:40.061Z,99765.84
2023-05-30T02:36:52.150Z,99773.03
2023-05-30T02:37:04.298Z,99784.56
2023-05-30T02:37:16.257Z,99774.81
2023-05-30T02:37:28.958Z,99769.56
2023-05-30T02:37:41.104Z,99768.81
2023-05-30T02:37:53.106Z,99776.69
2023-05-30T02:38:05.135Z,99774.81
2023-05-30T02:38:17.093Z,99773.78
2023-05-30T02:38:29.012Z,99772.03
2023-05-30T02:38:41.024Z,99776.34
2023-05-30T02:38:52.998Z,99772.28
2023-05-30T02:39:08.443Z,99774.81
2023-05-30T02:39:20.817Z,99779.16
2023-05-30T02:39:36.281Z,99773.72
2023-05-30T02:39:48.216Z,99778.03
2023-05-30T02:40:00.196Z,99771.00
2023-05-30T02:40:12.691Z,99770.91
2023-05-30T02:40:24.672Z,99776.25
2023-05-30T02:40:36.652Z,99774.66
2023-05-30T02:40:48.633Z,99780.34
2023-05-30T02:41:00.682Z,99781.34
2023-05-30T02:41:12.629Z,99775.19
2023-05-30T02:41:24.596Z,99776.03
2023-05-30T02:41:38.673Z,99775.19
2023-05-30T02:41:50.640Z,99775.34
2023-05-30T02:42:02.739Z,99781.63
2023-05-30T02:42:14.825Z,99780.59
2023-05-30T02:42:26.794Z,99777.88
2023-05-30T02:42:38.886Z,99776.84
2023-05-30T02:42:51.061Z,99778.56
2023-05-30T02:43:09.626Z,99777.72
2023-05-30T02:43:29.144Z,99776.84
2023-05-30T02:43:41.865Z,99775.84
2023-05-30T02:43:53.828Z,99779.31
2023-05-30T02:44:07.748Z,99778.28
2023-05-30T02:44:19.781Z,99778.41
2023-05-30T02:44:31.914Z,99781.94
2023-05-30T02:44:43.873Z,99780.28
2023-05-30T02:44:55.946Z,99778.56
2023-05-30T02:45:08.447Z,99779.69
2023-05-30T02:45:20.416Z,99781.13
2023-05-30T02:45:32.471Z,99785.44
2023-05-30T02:45:44.449Z,99781.13